Time;durP1;ratioP1;P1;durP2;ratioP2;P2;SDS_P1;SDS_P2;PMS_P1;PMS_P2;Temp;Humidity;BMP_temperature;BMP_pressure;BME280_temperature;BME280_humidity;BME280_pressure;Samples;Min_cycle;Max_cycle;Signal;HPM_P1;HPM_P2
2021/01/13 00:01:34;;;;;;;23.93;8.97;;;2.30;91.00;;;;;;5037670;28;20487;-75
2021/01/13 00:04:00;;;;;;;18.17;9.30;;;2.20;91.00;;;;;;5028350;28;20087;-75
2021/01/13 00:06:25;;;;;;;21.47;9.47;;;2.20;91.00;;;;;;5035349;28;20037;-83
2021/01/13 00:08:51;;;;;;;19.57;7.67;;;2.20;91.00;;;;;;5018001;28;20033;-75
2021/01/13 00:11:17;;;;;;;22.40;8.70;;;2.20;91.00;;;;;;5017608;28;20496;-75
2021/01/13 00:13:43;;;;;;;18.93;7.60;;;2.20;91.00;;;;;;5033976;28;20033;-75
2021/01/13 00:16:13;;;;;;;19.17;8.47;;;2.20;91.00;;;;;;5034296;28;20025;-76
2021/01/13 00:18:39;;;;;;;23.77;10.17;;;2.20;91.10;;;;;;5040620;28;20037;-76
2021/01/13 00:21:05;;;;;;;22.03;7.30;;;2.20;91.10;;;;;;5053774;28;20056;-74
2021/01/13 00:23:31;;;;;;;18.43;8.17;;;2.20;91.10;;;;;;5054937;28;20586;-76
2021/01/13 00:25:57;;;;;;;20.23;7.80;;;2.10;91.00;;;;;;5055206;28;20113;-75
2021/01/13 00:28:22;;;;;;;22.83;7.40;;;2.10;91.10;;;;;;5037433;28;20033;-75
2021/01/13 00:30:48;;;;;;;18.53;8.10;;;2.10;91.10;;;;;;5055594;28;20036;-75
2021/01/13 00:33:14;;;;;;;22.60;7.90;;;2.10;91.20;;;;;;5052754;28;20060;-75
2021/01/13 00:35:40;;;;;;;26.43;9.60;;;2.30;91.30;;;;;;5017854;28;20034;-76
2021/01/13 00:38:06;;;;;;;22.27;8.57;;;2.40;91.30;;;;;;5034060;28;20029;-75
2021/01/13 00:40:32;;;;;;;22.07;7.97;;;2.50;91.30;;;;;;5017497;28;20124;-76
2021/01/13 00:42:58;;;;;;;15.33;6.87;;;2.70;91.30;;;;;;5034447;28;20124;-75
2021/01/13 00:45:24;;;;;;;15.20;6.50;;;2.70;91.20;;;;;;5033902;28;20771;-75
2021/01/13 00:47:52;;;;;;;21.13;7.90;;;2.70;91.40;;;;;;5001027;28;20030;-78
2021/01/13 00:50:19;;;;;;;20.03;7.70;;;2.80;91.20;;;;;;5017310;28;20062;-74
2021/01/13 00:52:49;;;;;;;20.63;6.90;;;2.80;91.20;;;;;;5033647;28;20076;-74
2021/01/13 00:55:14;;;;;;;24.60;7.83;;;2.70;91.10;;;;;;5033766;28;20036;-78
2021/01/13 00:57:40;;;;;;;21.20;6.87;;;2.70;91.10;;;;;;5034603;28;20033;-75
2021/01/13 01:00:07;;;;;;;21.90;6.53;;;2.60;91.10;;;;;;5035157;28;20047;-75
2021/01/13 01:02:32;;;;;;;20.07;7.87;;;2.60;91.00;;;;;;5033485;28;20021;-75
2021/01/13 01:04:58;;;;;;;17.20;7.17;;;2.50;91.10;;;;;;5033316;28;20057;-75
2021/01/13 01:07:24;;;;;;;15.77;7.50;;;2.40;91.10;;;;;;5034383;28;20436;-75
2021/01/13 01:09:50;;;;;;;19.23;6.77;;;2.40;91.10;;;;;;5016755;28;20056;-78
2021/01/13 01:12:16;;;;;;;21.23;7.93;;;2.40;91.10;;;;;;5033450;28;20536;-75
2021/01/13 01:14:41;;;;;;;22.67;7.17;;;2.40;91.10;;;;;;5034033;28;20104;-76
2021/01/13 01:17:11;;;;;;;20.93;7.00;;;2.40;91.10;;;;;;5033083;28;20373;-76
2021/01/13 01:19:38;;;;;;;16.30;6.90;;;2.30;91.10;;;;;;5016842;28;20109;-78
2021/01/13 01:22:04;;;;;;;16.37;6.20;;;2.30;91.20;;;;;;5045287;28;20045;-74
2021/01/13 01:24:29;;;;;;;23.97;7.53;;;2.40;91.20;;;;;;5036597;28;20033;-75
2021/01/13 01:26:56;;;;;;;17.00;7.23;;;2.40;91.20;;;;;;5036296;28;20032;-75
2021/01/13 01:29:22;;;;;;;22.40;7.80;;;2.30;91.20;;;;;;5036633;28;20044;-74
2021/01/13 01:31:49;;;;;;;16.53;7.40;;;2.40;91.30;;;;;;5036586;28;20029;-75
2021/01/13 01:34:14;;;;;;;17.67;7.40;;;2.50;91.30;;;;;;5053931;28;20071;-75
2021/01/13 01:36:40;;;;;;;17.53;7.50;;;2.60;91.40;;;;;;5036841;28;20480;-78
2021/01/13 01:39:06;;;;;;;20.17;8.37;;;2.80;91.40;;;;;;5019624;28;20033;-75
2021/01/13 01:41:31;;;;;;;16.00;8.13;;;2.90;91.40;;;;;;5035496;28;20119;-74
2021/01/13 01:43:57;;;;;;;21.37;9.50;;;2.80;91.30;;;;;;5035924;28;20366;-74
2021/01/13 01:46:25;;;;;;;16.93;7.93;;;2.80;91.30;;;;;;5019707;28;20029;-75
2021/01/13 01:48:50;;;;;;;17.20;7.90;;;2.70;91.30;;;;;;5035923;28;20029;-75
2021/01/13 01:51:21;;;;;;;20.17;8.33;;;2.70;91.20;;;;;;5035737;28;20473;-74
2021/01/13 01:53:49;;;;;;;19.73;8.07;;;2.70;91.20;;;;;;5035589;28;20059;-75
2021/01/13 01:56:28;;;;;;;19.87;8.20;;;2.60;91.20;;;;;;5035651;28;20021;-75
2021/01/13 01:59:05;;;;;;;19.97;8.63;;;2.60;91.20;;;;;;5052997;28;20079;-75
2021/01/13 02:01:54;;;;;;;21.07;8.37;;;2.50;91.10;;;;;;5053876;28;20056;-75
2021/01/13 02:04:31;;;;;;;19.40;10.17;;;2.50;91.20;;;;;;5035080;28;20056;-75
2021/01/13 02:07:09;;;;;;;19.50;9.70;;;2.50;91.30;;;;;;5034398;28;20525;-75
2021/01/13 02:09:36;;;;;;;16.40;8.67;;;2.50;91.20;;;;;;5052628;28;20028;-75
2021/01/13 02:12:10;;;;;;;19.40;9.60;;;2.50;91.20;;;;;;5052533;28;20025;-75
2021/01/13 02:14:36;;;;;;;16.10;8.87;;;2.50;91.20;;;;;;5034787;28;20025;-75
2021/01/13 02:17:06;;;;;;;24.47;9.90;;;2.40;91.20;;;;;;5052841;28;20035;-75
2021/01/13 02:19:47;;;;;;;20.90;9.33;;;2.40;91.20;;;;;;5053227;28;20021;-75
2021/01/13 02:22:16;;;;;;;18.30;9.40;;;2.40;91.20;;;;;;5052409;28;20076;-75
2021/01/13 02:25:03;;;;;;;19.97;10.33;;;2.40;91.20;;;;;;5052883;28;20103;-75
2021/01/13 02:27:55;;;;;;;18.03;9.50;;;2.40;91.20;;;;;;5033923;28;20491;-77
2021/01/13 02:30:26;;;;;;;21.27;9.85;;;2.50;91.20;;;;;;5035174;28;20083;-75
2021/01/13 02:32:56;;;;;;;23.73;10.17;;;2.50;91.10;;;;;;5052460;28;20469;-74
2021/01/13 02:35:27;;;;;;;20.87;9.67;;;2.50;91.00;;;;;;5047932;28;20035;-74
2021/01/13 02:38:03;;;;;;;16.23;9.97;;;2.50;91.00;;;;;;5054613;28;20028;-75
2021/01/13 02:40:30;;;;;;;18.73;9.60;;;2.40;91.00;;;;;;5072905;28;20055;-74
2021/01/13 02:43:07;;;;;;;17.90;10.27;;;2.40;91.10;;;;;;5071986;28;20047;-74
2021/01/13 02:45:49;;;;;;;21.27;10.33;;;2.40;91.20;;;;;;5054509;28;20464;-74
2021/01/13 02:48:20;;;;;;;19.17;10.13;;;2.40;91.30;;;;;;5021541;28;20491;-75
2021/01/13 02:50:50;;;;;;;21.30;11.13;;;2.40;91.30;;;;;;5072546;28;20028;-75
2021/01/13 02:53:16;;;;;;;24.43;11.33;;;2.40;91.40;;;;;;5072408;28;20021;-77
2021/01/13 02:56:12;;;;;;;26.03;11.20;;;2.40;91.30;;;;;;5040682;28;20035;-73
2021/01/13 02:58:38;;;;;;;22.77;10.90;;;2.40;91.30;;;;;;5034696;28;20037;-74
2021/01/13 03:01:08;;;;;;;24.77;11.43;;;2.40;91.30;;;;;;5034740;28;20021;-74
2021/01/13 03:03:35;;;;;;;20.47;10.97;;;2.40;91.40;;;;;;5034658;28;20021;-74
2021/01/13 03:06:09;;;;;;;21.90;11.03;;;2.40;91.40;;;;;;5034530;28;20033;-75
2021/01/13 03:09:02;;;;;;;20.90;9.83;;;2.40;91.30;;;;;;5052601;28;20112;-74
2021/01/13 03:11:28;;;;;;;20.33;11.10;;;2.40;91.30;;;;;;5034752;28;20045;-74
2021/01/13 03:14:06;;;;;;;21.13;10.20;;;2.40;91.30;;;;;;5034478;28;20100;-93
2021/01/13 03:16:39;;;;;;;17.00;10.77;;;2.40;91.30;;;;;;5053123;28;20013;-74
2021/01/13 03:19:15;;;;;;;22.85;10.10;;;2.30;91.30;;;;;;5052119;28;20108;-74
2021/01/13 03:21:46;;;;;;;22.40;11.37;;;2.40;91.30;;;;;;5052162;28;20041;-74
2021/01/13 03:24:21;;;;;;;26.87;12.07;;;2.50;91.30;;;;;;5033556;28;20032;-73
2021/01/13 03:26:48;;;;;;;19.60;11.13;;;2.60;91.20;;;;;;5057482;28;20065;-74
2021/01/13 03:29:20;;;;;;;21.30;10.80;;;2.60;91.20;;;;;;5051965;28;20036;-74
2021/01/13 03:32:16;;;;;;;20.90;10.40;;;2.70;91.20;;;;;;5034396;28;20476;-73
2021/01/13 03:34:57;;;;;;;20.53;11.00;;;2.70;91.20;;;;;;5062402;28;20368;-74
2021/01/13 03:37:28;;;;;;;21.87;10.13;;;2.80;91.10;;;;;;5072363;28;20024;-74
2021/01/13 03:39:56;;;;;;;16.00;9.13;;;2.90;91.10;;;;;;5074852;28;20039;-74
2021/01/13 03:42:23;;;;;;;19.67;10.10;;;3.00;91.10;;;;;;5041949;28;20029;-74
2021/01/13 03:44:49;;;;;;;20.77;9.30;;;3.00;90.90;;;;;;5076117;28;20491;-74
2021/01/13 03:47:30;;;;;;;19.53;8.63;;;3.10;90.90;;;;;;5040942;28;20039;-74
2021/01/13 03:50:31;;;;;;;19.23;8.97;;;3.20;90.90;;;;;;5058143;28;20039;-74
2021/01/13 03:53:06;;;;;;;18.90;8.90;;;3.20;90.70;;;;;;5057491;28;20091;-77
2021/01/13 03:55:35;;;;;;;20.53;8.70;;;3.20;90.70;;;;;;5061457;28;20350;-74
2021/01/13 03:58:13;;;;;;;13.57;7.70;;;3.30;90.60;;;;;;5055378;28;20029;-82
2021/01/13 04:00:59;;;;;;;14.27;8.03;;;3.30;90.50;;;;;;5055607;28;20376;-74
2021/01/13 04:03:26;;;;;;;19.97;8.80;;;3.30;90.40;;;;;;5055572;28;20028;-74
2021/01/13 04:06:12;;;;;;;20.13;8.10;;;3.30;90.40;;;;;;5055078;28;20362;-73
2021/01/13 04:08:46;;;;;;;19.27;8.07;;;3.30;90.40;;;;;;5037709;28;20036;-74
2021/01/13 04:11:12;;;;;;;18.87;8.37;;;3.40;90.30;;;;;;5036875;28;20549;-74
2021/01/13 04:13:47;;;;;;;24.13;9.73;;;3.30;90.20;;;;;;5054987;28;20033;-73
2021/01/13 04:16:15;;;;;;;16.60;8.40;;;3.40;90.20;;;;;;5037110;28;20028;-74
2021/01/13 04:18:44;;;;;;;20.10;9.23;;;3.40;90.30;;;;;;5055302;28;20040;-74
2021/01/13 04:21:12;;;;;;;19.37;9.07;;;3.40;90.30;;;;;;5036462;28;20041;-74
2021/01/13 04:23:39;;;;;;;23.27;9.73;;;3.30;90.50;;;;;;5054950;28;20095;-74
2021/01/13 04:26:05;;;;;;;18.73;9.70;;;3.20;90.20;;;;;;5036233;28;20067;-86
2021/01/13 04:28:32;;;;;;;17.63;9.60;;;3.30;90.30;;;;;;5054560;28;20039;-75
2021/01/13 04:30:58;;;;;;;24.60;10.90;;;3.40;90.30;;;;;;5037032;28;20063;-73
2021/01/13 04:33:24;;;;;;;19.33;10.03;;;3.40;90.20;;;;;;5054204;28;20078;-74
2021/01/13 04:35:51;;;;;;;19.30;10.10;;;3.40;90.20;;;;;;5055483;28;20108;-74
2021/01/13 04:38:24;;;;;;;20.80;10.93;;;3.40;90.20;;;;;;5054328;28;20056;-74
2021/01/13 04:41:12;;;;;;;21.05;10.30;;;3.40;90.20;;;;;;5036594;28;20067;-75
2021/01/13 04:43:57;;;;;;;24.73;10.37;;;3.50;90.10;;;;;;5053742;28;20037;-76
2021/01/13 04:46:34;;;;;;;16.13;9.90;;;3.50;90.10;;;;;;5053772;28;20078;-75
2021/01/13 04:49:17;;;;;;;15.87;9.80;;;3.50;90.10;;;;;;5054108;28;20045;-74
2021/01/13 04:51:44;;;;;;;26.02;9.63;;;3.50;90.10;;;;;;5035707;28;20032;-73
2021/01/13 04:54:12;;;;;;;18.50;10.10;;;3.40;90.00;;;;;;5036605;28;20090;-76
2021/01/13 04:57:03;;;;;;;19.53;10.53;;;3.50;90.00;;;;;;5042532;28;20025;-73
2021/01/13 05:00:06;;;;;;;18.27;10.03;;;3.50;90.00;;;;;;5059359;28;20031;-73
2021/01/13 05:02:51;;;;;;;22.92;10.50;;;3.50;90.00;;;;;;5055885;28;20503;-73
2021/01/13 05:05:21;;;;;;;20.33;10.20;;;3.40;89.90;;;;;;5056588;28;20031;-74
2021/01/13 05:08:27;;;;;;;20.57;9.60;;;3.50;90.00;;;;;;5074237;28;20074;-75
2021/01/13 05:11:20;;;;;;;22.47;10.17;;;3.40;90.00;;;;;;5071367;28;20045;-73
2021/01/13 05:13:47;;;;;;;20.67;9.27;;;3.40;90.10;;;;;;5052462;28;20437;-74
2021/01/13 05:16:14;;;;;;;14.93;8.10;;;3.40;90.10;;;;;;5042297;28;20055;-81
2021/01/13 05:18:51;;;;;;;22.23;9.73;;;3.30;90.10;;;;;;5036351;28;20060;-74
2021/01/13 05:21:19;;;;;;;21.33;8.53;;;3.30;90.10;;;;;;5053774;28;20064;-75
2021/01/13 05:23:48;;;;;;;21.57;10.27;;;3.30;90.10;;;;;;5036633;28;20083;-74
2021/01/13 05:26:25;;;;;;;18.60;10.47;;;3.30;90.20;;;;;;5053821;28;20104;-82
2021/01/13 05:29:03;;;;;;;24.60;9.83;;;3.30;90.20;;;;;;5019129;28;20041;-74
2021/01/13 05:31:33;;;;;;;19.80;8.80;;;3.30;90.20;;;;;;5035660;28;20048;-74
2021/01/13 05:34:01;;;;;;;18.17;9.57;;;3.20;90.20;;;;;;5036264;28;20025;-74
2021/01/13 05:36:30;;;;;;;18.53;10.27;;;3.20;90.20;;;;;;5019515;28;20036;-74
2021/01/13 05:39:11;;;;;;;17.87;8.87;;;3.10;90.30;;;;;;5053725;28;20028;-74
2021/01/13 05:41:39;;;;;;;25.07;9.80;;;3.10;90.30;;;;;;5035116;28;20025;-74
2021/01/13 05:44:05;;;;;;;19.10;10.10;;;3.10;90.30;;;;;;5053292;28;20024;-73
2021/01/13 05:46:46;;;;;;;20.70;9.73;;;3.10;90.30;;;;;;5018788;28;20473;-74
2021/01/13 05:49:12;;;;;;;18.93;9.00;;;3.00;90.30;;;;;;5053419;28;20061;-75
2021/01/13 05:51:40;;;;;;;24.57;11.33;;;3.00;90.30;;;;;;5055182;28;20099;-74
2021/01/13 05:54:06;;;;;;;22.67;9.90;;;3.00;90.40;;;;;;5055217;28;20025;-74
2021/01/13 05:56:37;;;;;;;20.40;10.50;;;3.00;90.40;;;;;;5055076;28;20371;-74
2021/01/13 05:59:06;;;;;;;21.63;10.00;;;3.00;90.50;;;;;;5055615;28;20472;-74
2021/01/13 06:01:55;;;;;;;26.17;10.10;;;2.90;90.50;;;;;;5072840;28;20476;-74
2021/01/13 06:04:22;;;;;;;23.97;10.97;;;2.90;90.40;;;;;;5069497;28;20041;-76
2021/01/13 06:07:14;;;;;;;21.53;10.67;;;2.90;90.40;;;;;;5035207;28;20476;-74
2021/01/13 06:09:41;;;;;;;20.73;10.43;;;2.90;90.50;;;;;;5034753;28;20045;-73
2021/01/13 06:12:16;;;;;;;19.80;10.40;;;2.80;90.50;;;;;;5035297;28;20124;-75
2021/01/13 06:14:42;;;;;;;22.60;10.00;;;2.80;90.50;;;;;;5052452;28;20033;-74
2021/01/13 06:17:18;;;;;;;20.50;10.47;;;2.80;90.60;;;;;;5052926;28;20088;-74
2021/01/13 06:19:51;;;;;;;21.80;10.80;;;2.80;90.60;;;;;;5034869;28;20037;-73
2021/01/13 06:22:17;;;;;;;21.10;11.05;;;2.90;90.70;;;;;;5035210;28;20405;-74
2021/01/13 06:24:45;;;;;;;21.83;11.23;;;2.90;90.60;;;;;;5017996;28;20033;-74
2021/01/13 06:27:22;;;;;;;20.00;10.77;;;2.90;90.60;;;;;;5034435;28;20025;-74
2021/01/13 06:29:59;;;;;;;21.17;10.93;;;2.90;90.60;;;;;;5035525;28;20063;-74
2021/01/13 06:32:33;;;;;;;21.10;11.30;;;2.90;90.60;;;;;;5052018;28;20040;-75
2021/01/13 06:35:36;;;;;;;18.67;10.97;;;3.00;90.70;;;;;;5035264;28;20040;-74
2021/01/13 06:38:09;;;;;;;20.10;10.63;;;2.90;90.60;;;;;;4988100;28;20091;-74
2021/01/13 06:40:36;;;;;;;23.85;12.00;;;2.90;90.60;;;;;;5032393;28;20041;-75
2021/01/13 06:43:14;;;;;;;24.73;10.63;;;3.00;90.60;;;;;;5014853;28;20040;-74
2021/01/13 06:45:41;;;;;;;24.73;10.67;;;3.00;90.60;;;;;;5018854;28;20132;-75
2021/01/13 06:48:07;;;;;;;20.20;11.67;;;3.00;90.60;;;;;;5034733;28;20025;-74
2021/01/13 06:50:35;;;;;;;23.97;11.23;;;2.90;90.60;;;;;;5034824;28;20055;-74
2021/01/13 06:53:08;;;;;;;17.07;9.97;;;2.90;90.70;;;;;;5034887;28;20461;-75
2021/01/13 06:55:35;;;;;;;18.30;10.47;;;3.00;90.70;;;;;;5052213;28;20017;-74
2021/01/13 06:58:15;;;;;;;22.17;10.20;;;2.90;90.60;;;;;;5035086;28;20372;-76
2021/01/13 07:00:42;;;;;;;19.90;10.33;;;3.00;90.70;;;;;;5034554;28;20048;-74
2021/01/13 07:03:30;;;;;;;18.33;10.47;;;2.90;90.70;;;;;;5034342;28;20017;-74
2021/01/13 07:06:01;;;;;;;26.77;10.20;;;3.00;90.70;;;;;;5031873;28;20029;-75
2021/01/13 07:08:28;;;;;;;23.27;10.17;;;3.00;90.70;;;;;;5018338;28;20085;-80
2021/01/13 07:11:03;;;;;;;20.40;10.43;;;2.90;90.70;;;;;;5034476;28;20147;-75
2021/01/13 07:13:31;;;;;;;21.60;10.23;;;2.90;90.80;;;;;;5034411;28;20036;-83
2021/01/13 07:16:01;;;;;;;17.50;9.57;;;2.90;90.70;;;;;;5056013;28;20025;-75
2021/01/13 07:18:27;;;;;;;19.80;9.80;;;2.90;90.60;;;;;;5058496;28;20058;-81
2021/01/13 07:20:54;;;;;;;24.07;11.03;;;2.90;90.70;;;;;;5069725;28;20035;-75
2021/01/13 07:23:21;;;;;;;18.70;10.07;;;2.90;90.80;;;;;;5074982;28;20052;-76
2021/01/13 07:25:50;;;;;;;19.80;10.53;;;3.00;90.70;;;;;;5037609;28;20335;-77
2021/01/13 07:28:17;;;;;;;22.23;10.17;;;3.00;90.80;;;;;;5055621;28;20051;-74
2021/01/13 07:30:44;;;;;;;22.23;10.20;;;3.00;90.80;;;;;;5037351;28;20035;-76
2021/01/13 07:33:14;;;;;;;17.30;9.53;;;3.10;90.80;;;;;;5040047;28;20032;-76
2021/01/13 07:35:45;;;;;;;17.77;9.67;;;3.10;90.80;;;;;;5077174;28;20086;-75
2021/01/13 07:38:19;;;;;;;21.83;10.33;;;3.10;90.80;;;;;;5055906;28;20168;-75
2021/01/13 07:41:02;;;;;;;15.43;9.03;;;3.10;90.80;;;;;;5054405;28;20033;-75
2021/01/13 07:44:02;;;;;;;16.90;9.30;;;3.10;90.80;;;;;;5037916;28;20043;-75
2021/01/13 07:46:32;;;;;;;26.23;9.80;;;3.10;90.90;;;;;;5036973;28;20028;-76
2021/01/13 07:49:16;;;;;;;18.13;9.17;;;3.20;90.90;;;;;;5055468;28;20033;-74
2021/01/13 07:51:52;;;;;;;20.77;10.67;;;3.10;90.90;;;;;;5063004;28;20032;-76
2021/01/13 07:54:26;;;;;;;22.00;10.87;;;3.10;91.00;;;;;;5045123;28;20116;-74
2021/01/13 07:56:56;;;;;;;17.70;11.30;;;3.20;91.20;;;;;;5037620;28;20036;-75
2021/01/13 07:59:54;;;;;;;18.20;10.37;;;3.40;91.20;;;;;;5037345;28;20045;-74
2021/01/13 08:02:34;;;;;;;23.53;11.00;;;3.50;91.30;;;;;;5044353;28;20041;-75
2021/01/13 08:05:26;;;;;;;26.30;12.13;;;3.70;91.50;;;;;;5036653;28;20032;-75
2021/01/13 08:08:11;;;;;;;21.53;12.03;;;3.90;91.70;;;;;;5001487;28;20059;-75
2021/01/13 08:10:41;;;;;;;23.23;12.03;;;4.20;91.70;;;;;;5054925;28;20503;-84
2021/01/13 08:13:28;;;;;;;22.73;12.27;;;4.40;91.30;;;;;;5054564;28;20502;-75
2021/01/13 08:16:45;;;;;;;26.13;13.60;;;4.60;90.80;;;;;;5054854;28;20028;-75
2021/01/13 08:19:49;;;;;;;23.73;10.53;;;4.60;90.40;;;;;;5037024;28;20036;-74
2021/01/13 08:22:20;;;;;;;24.00;11.97;;;4.50;90.00;;;;;;5017024;28;20049;-75
2021/01/13 08:24:50;;;;;;;20.53;11.00;;;4.40;90.00;;;;;;5013958;28;20025;-74
2021/01/13 08:27:16;;;;;;;28.20;11.80;;;4.40;89.50;;;;;;5054823;28;20083;-76
2021/01/13 08:29:53;;;;;;;27.83;13.20;;;4.50;89.80;;;;;;5054535;28;20035;-77
2021/01/13 08:32:20;;;;;;;30.93;15.60;;;4.50;89.80;;;;;;5054320;28;20032;-75
2021/01/13 08:34:49;;;;;;;25.80;14.30;;;4.60;90.30;;;;;;5050744;28;20107;-75
2021/01/13 08:37:15;;;;;;;32.33;14.73;;;4.80;90.30;;;;;;5036740;28;20044;-74
2021/01/13 08:39:42;;;;;;;24.17;12.37;;;5.20;90.30;;;;;;5019852;28;20112;-82
2021/01/13 08:42:24;;;;;;;33.30;12.87;;;5.40;88.20;;;;;;5054022;28;20029;-74
2021/01/13 08:44:53;;;;;;;22.50;12.50;;;5.50;86.80;;;;;;5030797;28;20037;-77
2021/01/13 08:47:19;;;;;;;30.63;14.63;;;5.30;85.80;;;;;;5048900;28;20029;-75
2021/01/13 08:49:46;;;;;;;31.20;16.77;;;5.20;85.90;;;;;;5034203;28;20389;-75
2021/01/13 08:52:21;;;;;;;35.20;15.13;;;5.10;86.30;;;;;;5038446;28;20025;-73
2021/01/13 08:54:56;;;;;;;27.47;14.13;;;5.10;86.60;;;;;;5057991;28;20025;-75
2021/01/13 08:57:26;;;;;;;50.27;17.10;;;5.00;86.60;;;;;;5038215;28;20032;-74
2021/01/13 08:59:52;;;;;;;42.17;14.30;;;5.00;87.30;;;;;;5026533;28;20396;-75
2021/01/13 09:02:22;;;;;;;31.77;15.93;;;5.10;87.40;;;;;;5056775;28;20025;-74
2021/01/13 09:04:58;;;;;;;33.53;17.67;;;5.10;87.40;;;;;;5019709;28;20025;-74
2021/01/13 09:07:28;;;;;;;32.87;16.83;;;5.20;87.60;;;;;;5037935;28;20119;-74
2021/01/13 09:10:01;;;;;;;29.43;14.67;;;5.30;87.60;;;;;;5051225;28;20048;-79
2021/01/13 09:12:56;;;;;;;24.80;12.85;;;5.60;87.50;;;;;;5056641;28;20021;-75
2021/01/13 09:15:28;;;;;;;29.47;15.23;;;5.80;85.80;;;;;;5006220;28;20040;-74
2021/01/13 09:18:00;;;;;;;26.40;15.40;;;6.00;85.30;;;;;;5038288;28;20029;-77
2021/01/13 09:20:32;;;;;;;32.10;16.87;;;5.90;84.60;;;;;;5032981;28;20043;-75
2021/01/13 09:22:59;;;;;;;21.67;13.02;;;5.80;84.70;;;;;;5056406;28;20044;-75
2021/01/13 09:25:32;;;;;;;35.70;17.33;;;5.80;84.20;;;;;;5049449;28;20024;-74
2021/01/13 09:28:13;;;;;;;29.07;13.07;;;5.80;84.50;;;;;;5034366;28;20025;-76
2021/01/13 09:30:41;;;;;;;22.70;12.03;;;5.70;84.10;;;;;;5039036;28;20029;-74
2021/01/13 09:33:16;;;;;;;26.33;12.67;;;5.60;84.40;;;;;;5034017;28;20032;-77
2021/01/13 09:36:00;;;;;;;27.47;14.73;;;5.60;84.20;;;;;;5055469;28;20033;-75
2021/01/13 09:38:27;;;;;;;28.80;14.07;;;5.60;84.30;;;;;;5035267;28;20029;-75
2021/01/13 09:40:59;;;;;;;26.23;14.80;;;5.50;84.30;;;;;;5056804;28;20029;-80
2021/01/13 09:43:29;;;;;;;26.30;15.90;;;5.50;84.40;;;;;;5038725;28;20049;-75
2021/01/13 09:46:01;;;;;;;29.47;14.37;;;5.60;84.80;;;;;;5054804;28;20021;-76
2021/01/13 09:48:29;;;;;;;23.03;13.40;;;5.60;84.60;;;;;;5033782;28;20063;-76
2021/01/13 09:50:59;;;;;;;26.83;13.10;;;5.60;84.30;;;;;;5034943;28;20076;-83
2021/01/13 09:53:48;;;;;;;22.87;13.20;;;5.50;84.40;;;;;;5039772;28;20052;-77
2021/01/13 09:56:14;;;;;;;27.13;14.13;;;5.50;84.40;;;;;;5035568;28;20024;-75
2021/01/13 09:58:47;;;;;;;28.20;12.53;;;5.50;84.50;;;;;;5019735;28;20024;-76
2021/01/13 10:01:38;;;;;;;28.63;14.90;;;5.60;84.30;;;;;;5036332;28;20282;-78
2021/01/13 10:04:12;;;;;;;27.37;13.83;;;5.50;84.50;;;;;;5018364;28;20072;-75
2021/01/13 10:06:53;;;;;;;28.80;15.83;;;5.50;84.60;;;;;;5018830;28;20029;-77
2021/01/13 10:09:20;;;;;;;26.70;14.47;;;5.40;84.40;;;;;;5038426;28;20521;-77
2021/01/13 10:11:52;;;;;;;23.40;14.63;;;5.40;84.40;;;;;;5028945;28;20037;-76
2021/01/13 10:14:20;;;;;;;31.65;15.95;;;5.40;84.60;;;;;;5057330;28;20017;-77
2021/01/13 10:16:47;;;;;;;23.50;14.93;;;5.40;84.70;;;;;;5043514;28;20027;-78
2021/01/13 10:19:13;;;;;;;28.17;15.57;;;5.40;85.40;;;;;;5042814;28;20026;-78
2021/01/13 10:22:19;;;;;;;27.87;15.30;;;5.30;85.00;;;;;;5039223;28;20068;-78
2021/01/13 10:24:44;;;;;;;27.03;15.80;;;5.30;85.50;;;;;;5039105;28;20500;-77
2021/01/13 10:27:10;;;;;;;27.43;15.93;;;5.50;86.40;;;;;;5021893;28;20029;-76
2021/01/13 10:29:36;;;;;;;25.03;15.07;;;5.70;85.70;;;;;;5037872;28;20046;-77
2021/01/13 10:32:02;;;;;;;27.47;15.47;;;5.90;85.20;;;;;;5045613;28;20040;-77
2021/01/13 10:34:28;;;;;;;23.20;14.00;;;6.10;85.30;;;;;;5042452;28;20104;-77
2021/01/13 10:36:54;;;;;;;27.53;16.33;;;6.50;84.00;;;;;;5008216;28;20079;-77
2021/01/13 10:39:26;;;;;;;25.83;15.13;;;6.70;83.60;;;;;;5026046;28;20461;-77
2021/01/13 10:41:54;;;;;;;25.00;13.70;;;6.80;83.10;;;;;;5043346;28;20079;-77
2021/01/13 10:44:27;;;;;;;23.23;13.63;;;6.90;82.20;;;;;;5041903;28;20024;-78
2021/01/13 10:46:53;;;;;;;;;;;6.90;81.70;;;;;;5038184;28;20029;-77
2021/01/13 10:49:24;;;;;;;26.37;12.87;;;6.80;81.10;;;;;;5059684;28;19958;-78
2021/01/13 10:52:15;;;;;;;25.00;12.77;;;6.70;81.50;;;;;;5064055;28;20078;-78
2021/01/13 10:54:46;;;;;;;22.47;12.17;;;6.70;81.70;;;;;;5035247;28;20037;-77
2021/01/13 10:57:13;;;;;;;27.97;12.53;;;6.70;81.80;;;;;;5046794;28;20028;-78
2021/01/13 10:59:41;;;;;;;22.63;11.40;;;6.70;81.90;;;;;;5014044;28;20055;-77
2021/01/13 11:02:12;;;;;;;18.53;11.83;;;6.70;81.80;;;;;;5046065;28;20037;-77
2021/01/13 11:04:42;;;;;;;21.40;11.70;;;6.90;81.90;;;;;;5044992;28;20017;-77
2021/01/13 11:07:13;;;;;;;22.27;12.03;;;6.80;81.40;;;;;;5059357;28;20071;-76
2021/01/13 11:09:43;;;;;;;20.17;12.43;;;6.80;81.20;;;;;;5057443;28;20036;-78
2021/01/13 11:12:16;;;;;;;22.47;11.73;;;7.00;81.90;;;;;;5044732;28;20472;-79
2021/01/13 11:14:49;;;;;;;;;;;7.10;81.20;;;;;;5058082;28;20025;-77
2021/01/13 11:17:18;;;;;;;30.03;12.10;;;7.20;81.10;;;;;;5045506;28;20387;-80
2021/01/13 11:19:53;;;;;;;16.53;10.43;;;7.30;81.00;;;;;;5067529;28;20021;-76
2021/01/13 11:22:21;;;;;;;22.63;10.90;;;7.50;80.60;;;;;;5056409;28;20079;-78
2021/01/13 11:24:51;;;;;;;17.73;10.40;;;7.40;80.30;;;;;;5038391;28;20129;-77
2021/01/13 11:27:19;;;;;;;18.00;10.53;;;7.50;80.50;;;;;;5019075;28;20037;-77
2021/01/13 11:29:55;;;;;;;16.43;9.27;;;7.70;80.40;;;;;;5037135;28;20029;-77
2021/01/13 11:32:31;;;;;;;17.97;8.90;;;7.80;79.80;;;;;;5046194;28;20499;-77
2021/01/13 11:34:57;;;;;;;17.57;7.93;;;7.90;78.80;;;;;;5045800;28;20059;-76
2021/01/13 11:37:32;;;;;;;17.27;8.30;;;7.90;78.50;;;;;;5021730;28;20036;-78
2021/01/13 11:40:03;;;;;;;21.33;7.87;;;8.20;78.10;;;;;;5037582;28;20415;-77
2021/01/13 11:43:06;;;;;;;16.10;7.27;;;8.20;77.30;;;;;;5056148;28;20025;-77
2021/01/13 11:45:44;;;;;;;16.77;7.72;;;8.30;77.10;;;;;;5055595;28;20039;-77
2021/01/13 11:48:14;;;;;;;16.27;8.00;;;8.30;76.90;;;;;;5055308;28;20071;-83
2021/01/13 11:50:46;;;;;;;14.37;7.47;;;8.30;76.90;;;;;;5056439;28;20021;-77
2021/01/13 11:53:22;;;;;;;22.10;8.53;;;8.20;76.60;;;;;;5038582;28;20444;-77
2021/01/13 11:55:48;;;;;;;16.20;9.13;;;8.20;77.60;;;;;;5038444;28;20024;-77
2021/01/13 11:58:17;;;;;;;14.70;8.00;;;8.20;78.00;;;;;;5004682;28;20033;-78
2021/01/13 12:00:42;;;;;;;15.20;8.20;;;8.20;77.20;;;;;;5038082;28;20038;-78
2021/01/13 12:03:18;;;;;;;20.23;8.27;;;8.10;76.40;;;;;;5035639;28;20029;-77
2021/01/13 12:05:45;;;;;;;17.10;8.33;;;8.00;76.00;;;;;;5054279;28;20523;-77
2021/01/13 12:08:15;;;;;;;22.17;8.80;;;7.90;76.40;;;;;;5033606;28;20037;-80
2021/01/13 12:10:49;;;;;;;16.07;8.17;;;7.80;76.40;;;;;;5036730;28;20025;-77
2021/01/13 12:13:27;;;;;;;12.33;7.60;;;7.70;76.90;;;;;;5050582;28;20119;-81
2021/01/13 12:16:06;;;;;;;17.53;8.23;;;7.40;77.10;;;;;;5056496;28;20021;-76
2021/01/13 12:18:34;;;;;;;17.77;8.07;;;7.40;77.60;;;;;;5049683;28;20057;-77
2021/01/13 12:21:17;;;;;;;19.37;8.37;;;7.30;78.10;;;;;;5036389;28;20025;-77
2021/01/13 12:23:47;;;;;;;18.07;7.77;;;7.40;77.90;;;;;;5053988;28;20049;-78
2021/01/13 12:26:29;;;;;;;14.80;7.97;;;7.40;77.80;;;;;;5034474;28;20032;-83
2021/01/13 12:29:09;;;;;;;15.20;8.53;;;7.30;77.80;;;;;;5031226;28;20030;-77
2021/01/13 12:31:42;;;;;;;19.67;8.93;;;7.30;78.50;;;;;;5052184;28;20100;-76
2021/01/13 12:34:29;;;;;;;18.33;8.93;;;7.40;78.20;;;;;;5037053;28;20017;-76
2021/01/13 12:36:57;;;;;;;18.23;8.67;;;7.50;77.80;;;;;;5037332;28;20033;-79
2021/01/13 12:39:25;;;;;;;17.90;8.80;;;7.50;77.50;;;;;;5036872;28;20035;-77
2021/01/13 12:41:55;;;;;;;21.77;8.67;;;7.60;77.60;;;;;;5036164;28;20029;-77
2021/01/13 12:44:22;;;;;;;20.63;8.70;;;7.50;77.60;;;;;;5036216;28;20037;-78
2021/01/13 12:47:09;;;;;;;16.17;8.43;;;7.50;77.70;;;;;;5036088;28;20037;-77
2021/01/13 12:49:35;;;;;;;13.57;7.50;;;7.30;77.90;;;;;;5036005;28;20037;-77
2021/01/13 12:52:00;;;;;;;23.73;8.10;;;7.40;78.30;;;;;;5036288;28;20025;-76
2021/01/13 12:54:27;;;;;;;17.30;7.80;;;7.40;77.90;;;;;;5036473;28;20464;-77
2021/01/13 12:56:53;;;;;;;16.87;7.67;;;7.40;77.50;;;;;;5034536;28;20025;-78
2021/01/13 12:59:19;;;;;;;19.67;7.73;;;7.40;77.60;;;;;;5041877;28;20040;-78
2021/01/13 13:01:46;;;;;;;18.33;7.57;;;7.40;77.60;;;;;;5035391;28;20163;-77
2021/01/13 13:04:13;;;;;;;15.97;7.90;;;7.40;77.60;;;;;;5034982;28;20461;-77
2021/01/13 13:06:40;;;;;;;17.43;7.90;;;7.40;77.50;;;;;;5019118;28;20025;-79
2021/01/13 13:09:10;;;;;;;18.50;7.47;;;7.40;77.60;;;;;;5053881;28;20037;-76
2021/01/13 13:11:38;;;;;;;16.17;7.00;;;7.30;77.40;;;;;;5034438;28;20461;-77